Aérodrome :
LOGIN :

S'inscrire | Disclaimer

   EN    FR    IT 

 










Légende :    VFR   VFR Marginal   IFR   IFR Intensif   IFR Très Intensif
Visi : 
Plafond : 
>= 8 km
>= 3000ft
5 à 8 km
1000 à 3000 ft
1500m à 5 km
500 à 1000 ft
800 à 1500m
200 à 500 ft
< 800m
< 200 ft
Symboles :   Orages  Brouillard  Fortes neiges  Fortes précipitations  Vent > 20 kt
SIGMETs :   Divers  Orages  Givrage  Turbulence  Onde Orograph.  Cendres Volcan.






- Altitude de l'aérodrome : 295 ft
- Code IATA : BWE


EDVE - Braunschweig

DERNIER METAR :
  • 240450Z 23007KT 9999 FEW014 BKN023 04/02 Q1007

METARs EXPIRÉS :
  • 240420Z AUTO 24006KT 9999 SCT016/// BKN018/// OVC061/// 04/02 Q1007
  • 240350Z AUTO 25007KT 9999 OVC063/// 04/02 Q1007
  • 240320Z AUTO 24009KT 9999 SCT013/// BKN018/// OVC048/// 04/02 Q1007
  • 240250Z AUTO 23007KT 200V270 9999 BKN013/// OVC016/// 04/02 Q1008
  • 240220Z AUTO 24008KT 8000 SCT014/// OVC017/// 04/02 Q1008
  • 240150Z AUTO 23008KT 9999 BKN019/// OVC029/// 04/02 Q1008
  • 240120Z AUTO 21004KT 170V240 9999 FEW031/// OVC036/// 05/01 Q1009
  • 240050Z AUTO 20004KT 9999 FEW032/// SCT036/// OVC043/// 04/02 Q1009
  • 240020Z AUTO 23005KT 9999 SCT040/// BKN045/// OVC110/// 04/02 Q1010

Prévision TAF périmée.



MET'MAP, la Météo Aéronautique d'un coup d'oeil ! - Copyright ORBIFLY Décembre 2007 - Disclaimer

ORBIFLY MET'MAP TEAM :

Programmation & Développement : Alexandra Zaïnal
Sur une idée originale de : Baudouin d'Aumeries
Soutien technique & logistique : Manuel Goepfert
Assistance : Marc-Olivier Méhu




SOURCES & CREDITS :

   NOAA